Time;durP1;ratioP1;P1;durP2;ratioP2;P2;SDS_P1;SDS_P2;PMS_P1;PMS_P2;Temp;Humidity;BMP_temperature;BMP_pressure;BME280_temperature;BME280_humidity;BME280_pressure;Samples;Min_cycle;Max_cycle;Signal;HPM_P1;HPM_P2
2023/04/25 00:02:03;;;;;;;1.58;1.30;;;13.70;99.90;;;;;;5114098;28;20029;-76
2023/04/25 00:04:29;;;;;;;1.83;1.60;;;13.70;99.90;;;;;;5113432;28;20051;-77
2023/04/25 00:06:55;;;;;;;2.00;1.40;;;13.70;99.90;;;;;;5113225;28;20024;-76
2023/04/25 00:09:21;;;;;;;1.92;1.48;;;13.80;99.90;;;;;;5113157;28;20118;-76
2023/04/25 00:11:47;;;;;;;3.10;1.65;;;13.70;99.90;;;;;;5113200;28;20393;-76
2023/04/25 00:14:13;;;;;;;2.60;1.60;;;13.70;99.90;;;;;;5113416;28;20094;-76
2023/04/25 00:16:40;;;;;;;1.88;1.50;;;13.70;99.90;;;;;;5113243;28;20020;-76
2023/04/25 00:19:07;;;;;;;1.88;1.70;;;13.70;99.90;;;;;;5094877;28;20081;-75
2023/04/25 00:21:33;;;;;;;3.15;1.58;;;13.80;99.90;;;;;;5113611;28;20023;-74
2023/04/25 00:23:59;;;;;;;2.20;1.70;;;13.80;99.90;;;;;;5113129;28;20031;-75
2023/04/25 00:26:25;;;;;;;1.95;1.75;;;13.80;99.90;;;;;;5114244;28;20027;-75
2023/04/25 00:28:51;;;;;;;1.98;1.50;;;13.80;99.90;;;;;;5113043;28;20028;-75
2023/04/25 00:31:17;;;;;;;2.20;1.60;;;13.70;99.90;;;;;;5113163;28;20075;-75
2023/04/25 00:33:42;;;;;;;2.25;1.50;;;13.70;99.90;;;;;;5112822;28;20059;-75
2023/04/25 00:36:09;;;;;;;1.75;1.33;;;13.70;99.90;;;;;;5112793;28;20023;-75
2023/04/25 00:38:35;;;;;;;2.15;1.00;;;13.70;99.90;;;;;;5112703;28;20080;-74
2023/04/25 00:41:01;;;;;;;0.90;0.90;;;13.70;99.90;;;;;;5112828;28;20019;-76
2023/04/25 00:43:27;;;;;;;0.80;0.80;;;13.60;99.90;;;;;;5112904;28;20039;-75
2023/04/25 00:45:53;;;;;;;1.00;1.00;;;13.50;99.90;;;;;;5112587;28;20023;-76
2023/04/25 00:48:22;;;;;;;1.00;1.00;;;13.60;99.90;;;;;;5112491;28;20050;-75
2023/04/25 00:50:57;;;;;;;0.90;0.90;;;13.60;99.90;;;;;;5112801;28;20036;-76
2023/04/25 00:53:24;;;;;;;1.08;1.00;;;13.60;99.90;;;;;;5112541;28;20102;-75
2023/04/25 00:55:53;;;;;;;1.00;0.90;;;13.50;99.90;;;;;;5112529;28;20032;-75
2023/04/25 00:58:20;;;;;;;0.95;0.95;;;13.40;99.90;;;;;;5112357;28;20020;-75
2023/04/25 01:00:47;;;;;;;1.00;1.00;;;13.40;99.90;;;;;;5111976;28;20012;-74
2023/04/25 01:03:17;;;;;;;1.23;1.13;;;13.40;99.90;;;;;;5112346;28;20031;-74
2023/04/25 01:05:43;;;;;;;1.00;1.00;;;13.40;99.90;;;;;;5112628;28;20496;-74
2023/04/25 01:08:09;;;;;;;1.27;1.17;;;13.40;99.90;;;;;;5111841;28;20063;-74
2023/04/25 01:10:35;;;;;;;1.00;1.00;;;13.40;99.90;;;;;;5112591;28;20553;-73
2023/04/25 01:13:01;;;;;;;1.20;1.10;;;13.50;99.90;;;;;;5111812;28;20172;-74
2023/04/25 01:15:27;;;;;;;1.17;1.10;;;13.50;99.90;;;;;;5111873;28;20107;-73
2023/04/25 01:17:53;;;;;;;1.27;1.20;;;13.40;99.90;;;;;;5111889;28;20042;-74
2023/04/25 01:20:22;;;;;;;1.08;1.08;;;13.40;99.90;;;;;;5112032;28;20162;-73
2023/04/25 01:22:49;;;;;;;1.10;1.10;;;13.40;99.90;;;;;;5112210;28;20423;-73
2023/04/25 01:25:15;;;;;;;1.40;1.30;;;13.40;99.90;;;;;;5112247;28;20055;-73
2023/04/25 01:27:41;;;;;;;1.60;1.40;;;13.40;99.90;;;;;;5111723;28;20023;-73
2023/04/25 01:30:07;;;;;;;1.27;1.20;;;13.40;99.90;;;;;;5111679;28;20151;-74
2023/04/25 01:32:38;;;;;;;1.55;1.35;;;13.30;99.90;;;;;;5112001;28;20103;-74
2023/04/25 01:35:09;;;;;;;1.33;1.23;;;13.30;99.90;;;;;;5111947;27;20088;-74
2023/04/25 01:37:42;;;;;;;1.25;1.17;;;13.40;99.90;;;;;;5112018;27;20031;-74
2023/04/25 01:40:11;;;;;;;1.50;1.40;;;13.40;99.90;;;;;;5112228;28;20020;-74
2023/04/25 01:42:41;;;;;;;1.92;1.30;;;13.40;99.90;;;;;;5111686;28;20404;-74
2023/04/25 01:45:08;;;;;;;1.45;1.35;;;13.40;99.90;;;;;;5111623;28;20557;-74
2023/04/25 01:47:37;;;;;;;1.40;1.30;;;13.40;99.90;;;;;;5111720;28;20012;-74
2023/04/25 01:50:06;;;;;;;1.40;1.30;;;13.40;99.90;;;;;;5112361;28;20067;-74
2023/04/25 01:52:32;;;;;;;1.92;1.50;;;13.40;99.90;;;;;;5112048;28;20429;-74
2023/04/25 01:55:01;;;;;;;1.63;1.40;;;13.30;99.90;;;;;;5111957;28;20111;-74
2023/04/25 01:57:26;;;;;;;1.48;1.38;;;13.40;99.90;;;;;;5111870;28;20024;-74
2023/04/25 01:59:58;;;;;;;2.25;1.40;;;13.40;99.90;;;;;;5111236;28;20090;-74
2023/04/25 02:02:24;;;;;;;1.42;1.33;;;13.30;99.90;;;;;;5112216;28;20020;-74
2023/04/25 02:04:49;;;;;;;1.40;1.30;;;13.30;99.90;;;;;;5111682;28;20039;-75
2023/04/25 02:07:15;;;;;;;2.45;1.30;;;13.30;99.90;;;;;;5111481;28;20032;-74
2023/04/25 02:09:41;;;;;;;1.88;1.17;;;13.30;99.90;;;;;;5111456;28;20123;-75
2023/04/25 02:12:09;;;;;;;1.38;1.20;;;13.40;99.90;;;;;;5115719;28;20054;-74
2023/04/25 02:14:35;;;;;;;2.33;1.20;;;13.40;99.90;;;;;;5115312;28;20015;-75
2023/04/25 02:17:00;;;;;;;1.30;1.20;;;13.30;99.90;;;;;;5115435;28;20020;-74
2023/04/25 02:19:26;;;;;;;1.13;1.10;;;13.30;99.90;;;;;;5115572;28;20020;-75
2023/04/25 02:21:52;;;;;;;1.63;1.30;;;13.40;99.90;;;;;;5115717;28;20066;-74
2023/04/25 02:24:17;;;;;;;1.40;1.27;;;13.30;99.90;;;;;;5116057;28;20028;-75
2023/04/25 02:26:43;;;;;;;1.45;1.20;;;13.30;99.90;;;;;;5115773;28;20043;-75
2023/04/25 02:29:09;;;;;;;2.03;1.40;;;13.30;99.90;;;;;;5115018;28;20020;-75
2023/04/25 02:31:35;;;;;;;1.55;1.42;;;13.30;99.90;;;;;;5115296;28;20105;-74
2023/04/25 02:34:01;;;;;;;1.63;1.52;;;13.30;99.90;;;;;;5115383;28;20028;-74
2023/04/25 02:36:27;;;;;;;1.55;1.40;;;13.30;99.90;;;;;;5115301;28;20055;-75
2023/04/25 02:38:53;;;;;;;2.17;1.50;;;13.40;99.90;;;;;;5115003;28;20028;-75
2023/04/25 02:41:20;;;;;;;1.58;1.48;;;13.40;99.90;;;;;;5115225;28;20373;-75
2023/04/25 02:43:46;;;;;;;2.22;1.50;;;13.30;99.90;;;;;;5114726;28;20031;-76
2023/04/25 02:46:11;;;;;;;1.67;1.58;;;13.30;99.90;;;;;;5115681;28;20086;-75
2023/04/25 02:48:37;;;;;;;2.05;1.42;;;13.30;99.90;;;;;;5115144;28;20032;-75
2023/04/25 02:51:03;;;;;;;2.67;1.52;;;13.30;99.90;;;;;;5114860;28;20042;-75
2023/04/25 02:53:28;;;;;;;1.63;1.52;;;13.30;99.90;;;;;;5114739;28;20038;-76
2023/04/25 02:55:54;;;;;;;2.00;1.90;;;13.20;99.90;;;;;;5115230;28;20055;-76
2023/04/25 02:58:20;;;;;;;1.92;1.83;;;13.30;99.90;;;;;;5114650;28;20031;-75
2023/04/25 03:00:46;;;;;;;2.35;2.00;;;13.20;99.90;;;;;;5115359;28;20027;-75
2023/04/25 03:03:11;;;;;;;2.03;1.90;;;13.20;99.90;;;;;;5114821;28;20484;-75
2023/04/25 03:05:37;;;;;;;2.03;1.92;;;13.10;99.90;;;;;;5096641;28;20031;-75
2023/04/25 03:08:03;;;;;;;2.45;2.25;;;13.10;99.90;;;;;;5114398;28;20034;-75
2023/04/25 03:10:28;;;;;;;2.80;2.60;;;13.10;99.90;;;;;;5096203;28;20137;-75
2023/04/25 03:12:54;;;;;;;3.28;3.08;;;13.10;99.90;;;;;;5092519;28;20055;-76
2023/04/25 03:15:19;;;;;;;3.30;3.00;;;13.10;99.90;;;;;;5094327;28;20404;-75
2023/04/25 03:17:45;;;;;;;3.45;3.15;;;13.10;99.90;;;;;;5094154;28;20053;-75
2023/04/25 03:20:11;;;;;;;3.00;2.80;;;13.10;99.90;;;;;;5094842;28;20450;-76
2023/04/25 03:22:37;;;;;;;2.83;2.63;;;13.10;99.90;;;;;;5092832;28;20022;-75
2023/04/25 03:25:03;;;;;;;2.25;2.10;;;13.00;99.90;;;;;;5094031;28;20489;-75
2023/04/25 03:27:29;;;;;;;1.67;1.58;;;13.00;99.90;;;;;;5093965;28;20012;-75
2023/04/25 03:29:55;;;;;;;2.20;2.00;;;13.00;99.90;;;;;;5094013;28;20123;-75
2023/04/25 03:32:20;;;;;;;2.28;2.00;;;12.90;99.90;;;;;;5093645;28;20052;-75
2023/04/25 03:34:46;;;;;;;2.22;2.03;;;12.90;99.90;;;;;;5093606;28;20032;-75
2023/04/25 03:37:12;;;;;;;2.55;2.13;;;12.90;99.90;;;;;;5094099;28;20077;-74
2023/04/25 03:39:38;;;;;;;2.60;1.80;;;12.90;99.90;;;;;;5093478;28;20500;-74
2023/04/25 03:42:04;;;;;;;2.17;1.80;;;12.90;99.90;;;;;;5093293;28;20683;-74
2023/04/25 03:44:30;;;;;;;2.10;1.90;;;12.80;99.90;;;;;;5093790;28;20028;-75
2023/04/25 03:46:55;;;;;;;2.10;2.00;;;12.90;99.90;;;;;;5093323;28;20047;-75
2023/04/25 03:49:21;;;;;;;1.80;1.70;;;12.80;99.90;;;;;;5093990;28;20020;-75
2023/04/25 03:51:47;;;;;;;2.33;2.13;;;12.90;99.90;;;;;;5094219;28;20125;-75
2023/04/25 03:54:12;;;;;;;2.45;2.22;;;12.90;99.90;;;;;;5093196;28;20673;-75
2023/04/25 03:56:38;;;;;;;2.38;2.20;;;12.80;99.90;;;;;;5092906;28;20451;-75
2023/04/25 03:59:04;;;;;;;2.40;2.20;;;12.90;99.90;;;;;;5093431;28;20061;-74
2023/04/25 04:01:29;;;;;;;2.83;2.47;;;12.80;99.90;;;;;;5093355;28;20101;-76
2023/04/25 04:03:55;;;;;;;2.40;2.20;;;12.70;99.90;;;;;;5093398;28;20027;-74
2023/04/25 04:06:21;;;;;;;2.90;2.70;;;12.70;99.90;;;;;;5092801;28;20028;-75
2023/04/25 04:08:46;;;;;;;3.10;2.90;;;12.70;99.90;;;;;;5093243;28;20027;-75
2023/04/25 04:11:12;;;;;;;3.30;3.10;;;12.70;99.90;;;;;;5095004;28;20048;-75
2023/04/25 04:13:38;;;;;;;3.22;3.03;;;12.80;99.90;;;;;;5113141;28;20034;-75
2023/04/25 04:16:04;;;;;;;3.10;2.90;;;12.80;99.90;;;;;;5113480;28;20036;-75
2023/04/25 04:18:30;;;;;;;3.22;2.88;;;12.70;99.90;;;;;;5113241;28;20014;-75
2023/04/25 04:20:57;;;;;;;3.13;2.92;;;12.70;99.90;;;;;;5113381;28;20040;-74
2023/04/25 04:23:23;;;;;;;3.17;2.88;;;12.70;99.90;;;;;;5112758;28;20024;-75
2023/04/25 04:25:49;;;;;;;3.35;3.10;;;12.60;99.90;;;;;;5112958;28;20035;-75
2023/04/25 04:28:16;;;;;;;3.20;2.92;;;12.70;99.90;;;;;;5113142;28;20019;-74
2023/04/25 04:30:42;;;;;;;3.60;3.30;;;12.60;99.90;;;;;;5113177;28;20511;-74
2023/04/25 04:33:08;;;;;;;3.90;3.60;;;12.60;99.90;;;;;;5113215;28;20026;-74
2023/04/25 04:35:34;;;;;;;4.75;4.25;;;12.60;99.90;;;;;;5112906;28;20027;-73
2023/04/25 04:38:00;;;;;;;4.93;4.53;;;12.60;99.90;;;;;;5112501;28;20027;-75
2023/04/25 04:40:26;;;;;;;4.85;4.45;;;12.60;99.90;;;;;;5112648;28;20080;-75
2023/04/25 04:42:53;;;;;;;4.18;3.88;;;12.60;99.90;;;;;;5112853;28;20030;-75
2023/04/25 04:45:19;;;;;;;3.65;3.20;;;12.60;99.90;;;;;;5113109;28;20488;-75
2023/04/25 04:47:45;;;;;;;3.50;3.20;;;12.50;99.90;;;;;;5112592;28;20565;-74
2023/04/25 04:50:11;;;;;;;3.78;3.40;;;12.60;99.90;;;;;;5112546;28;20031;-73
2023/04/25 04:52:38;;;;;;;3.40;3.10;;;12.60;99.90;;;;;;5112230;28;20028;-74
2023/04/25 04:55:05;;;;;;;2.60;2.40;;;12.60;99.90;;;;;;5112598;28;20024;-74
2023/04/25 04:57:32;;;;;;;2.45;2.20;;;12.70;99.90;;;;;;5112463;28;20030;-74
2023/04/25 04:59:59;;;;;;;2.50;2.30;;;12.60;99.90;;;;;;5112784;28;20036;-73
2023/04/25 05:02:25;;;;;;;2.80;2.60;;;12.70;99.90;;;;;;5112217;28;20015;-73
2023/04/25 05:04:51;;;;;;;3.45;2.85;;;12.70;99.90;;;;;;5111802;28;20035;-73
2023/04/25 05:07:17;;;;;;;2.80;2.60;;;12.60;99.90;;;;;;5112231;28;20016;-74
2023/04/25 05:09:43;;;;;;;3.10;2.90;;;12.70;99.90;;;;;;5112001;28;20103;-73
2023/04/25 05:12:09;;;;;;;2.60;2.40;;;12.70;99.90;;;;;;5111936;28;20575;-73
2023/04/25 05:14:35;;;;;;;2.60;2.45;;;12.60;99.90;;;;;;5112123;28;20034;-72
2023/04/25 05:17:01;;;;;;;2.67;2.47;;;12.60;99.90;;;;;;5112051;28;20016;-73
2023/04/25 05:19:26;;;;;;;2.40;2.20;;;12.60;99.90;;;;;;5112101;28;20512;-73
2023/04/25 05:21:52;;;;;;;2.08;1.98;;;12.70;99.90;;;;;;5093445;28;20031;-73
2023/04/25 05:24:18;;;;;;;2.38;2.17;;;12.60;99.90;;;;;;5112334;28;20024;-72
2023/04/25 05:26:44;;;;;;;1.90;1.80;;;12.60;99.90;;;;;;5112082;28;20111;-72
2023/04/25 05:29:09;;;;;;;1.92;1.83;;;12.50;99.90;;;;;;5111822;28;20039;-72
2023/04/25 05:31:36;;;;;;;2.30;2.10;;;12.50;99.90;;;;;;5113475;28;20039;-72
2023/04/25 05:34:02;;;;;;;2.03;1.70;;;12.50;99.90;;;;;;5112647;28;20113;-70
2023/04/25 05:36:28;;;;;;;2.30;2.10;;;12.50;99.90;;;;;;5111865;28;20494;-72
2023/04/25 05:38:53;;;;;;;2.10;2.00;;;12.60;99.90;;;;;;5111770;28;20012;-72
2023/04/25 05:41:20;;;;;;;2.00;1.90;;;12.60;99.90;;;;;;5111733;28;20031;-73
2023/04/25 05:43:47;;;;;;;2.10;2.00;;;12.70;99.90;;;;;;5111782;28;20039;-72
2023/04/25 05:46:13;;;;;;;3.05;2.17;;;12.60;99.90;;;;;;5111078;28;20035;-73
2023/04/25 05:48:40;;;;;;;2.40;2.10;;;12.60;99.90;;;;;;5111635;28;20020;-71
2023/04/25 05:51:05;;;;;;;2.22;2.03;;;12.70;99.90;;;;;;5111690;28;20039;-71
2023/04/25 05:53:31;;;;;;;2.22;2.03;;;12.70;99.90;;;;;;5111573;28;20035;-71
2023/04/25 05:55:57;;;;;;;2.65;2.17;;;12.70;99.90;;;;;;5111711;28;20504;-71
2023/04/25 05:58:22;;;;;;;2.40;2.20;;;12.70;99.90;;;;;;5111742;28;20388;-72
2023/04/25 06:00:48;;;;;;;2.03;1.92;;;12.80;99.90;;;;;;5111618;28;20488;-72
2023/04/25 06:03:15;;;;;;;2.22;2.13;;;12.80;99.90;;;;;;5111677;28;20539;-72
2023/04/25 06:05:43;;;;;;;2.20;2.10;;;12.80;99.90;;;;;;5111181;28;20032;-72
2023/04/25 06:08:10;;;;;;;2.30;2.10;;;12.80;99.90;;;;;;5111260;28;20114;-71
2023/04/25 06:10:36;;;;;;;2.28;2.10;;;12.80;99.90;;;;;;5111475;28;20496;-70
2023/04/25 06:13:02;;;;;;;2.40;2.05;;;12.90;99.90;;;;;;5111385;28;20618;-70
2023/04/25 06:15:28;;;;;;;2.30;2.20;;;12.90;99.90;;;;;;5110862;28;20484;-72
2023/04/25 06:17:54;;;;;;;2.63;2.30;;;12.90;99.90;;;;;;5110548;28;20031;-71
2023/04/25 06:20:24;;;;;;;2.60;2.40;;;13.00;99.90;;;;;;5111183;28;20020;-72
2023/04/25 06:22:51;;;;;;;2.58;2.38;;;13.00;99.90;;;;;;5111056;28;20019;-72
2023/04/25 06:25:17;;;;;;;2.42;2.33;;;13.00;99.90;;;;;;5111435;28;20028;-72
2023/04/25 06:27:43;;;;;;;2.47;2.25;;;13.00;99.90;;;;;;5111302;28;20544;-72
2023/04/25 06:30:11;;;;;;;2.97;2.75;;;13.00;99.90;;;;;;5111424;28;20071;-72
2023/04/25 06:32:36;;;;;;;3.40;3.10;;;13.00;99.90;;;;;;5111607;28;20517;-71
2023/04/25 06:35:03;;;;;;;3.80;3.50;;;13.00;99.90;;;;;;5110887;28;20059;-71
2023/04/25 06:37:29;;;;;;;4.60;4.20;;;13.00;99.90;;;;;;5111236;28;20107;-71
2023/04/25 06:39:54;;;;;;;7.05;6.28;;;13.00;99.90;;;;;;5111370;28;20172;-72
2023/04/25 06:42:20;;;;;;;6.53;5.95;;;13.00;99.90;;;;;;5111456;28;20034;-72
2023/04/25 06:44:46;;;;;;;7.20;6.60;;;13.00;99.90;;;;;;5111660;28;20043;-72
2023/04/25 06:47:11;;;;;;;7.78;7.07;;;13.00;99.90;;;;;;5111554;28;20262;-71
2023/04/25 06:49:37;;;;;;;7.85;7.15;;;13.00;99.90;;;;;;5110345;28;20089;-72
2023/04/25 06:52:03;;;;;;;7.63;7.03;;;13.10;99.90;;;;;;5111480;28;20027;-72
2023/04/25 06:54:29;;;;;;;7.90;7.22;;;13.00;99.90;;;;;;5111106;28;20030;-71
2023/04/25 06:56:56;;;;;;;7.20;6.60;;;13.10;99.90;;;;;;5113065;28;20396;-72
2023/04/25 06:59:21;;;;;;;6.63;6.03;;;13.10;99.90;;;;;;5115229;28;20480;-72
2023/04/25 07:01:47;;;;;;;5.82;5.32;;;13.10;99.90;;;;;;5115007;28;20035;-73
2023/04/25 07:04:13;;;;;;;6.30;5.68;;;13.10;99.90;;;;;;5114433;28;20027;-71
2023/04/25 07:06:42;;;;;;;6.28;5.68;;;13.10;99.90;;;;;;5114782;28;20096;-71
2023/04/25 07:09:09;;;;;;;5.53;5.13;;;13.10;99.90;;;;;;5114773;28;20028;-72
2023/04/25 07:11:36;;;;;;;4.57;4.28;;;13.10;99.90;;;;;;5113791;28;20071;-72
2023/04/25 07:14:02;;;;;;;4.03;3.65;;;13.10;99.90;;;;;;5115060;28;20019;-72
2023/04/25 07:16:27;;;;;;;3.78;3.47;;;13.10;99.90;;;;;;5114304;28;20495;-71
2023/04/25 07:18:53;;;;;;;2.63;2.40;;;13.10;99.90;;;;;;5113927;28;20077;-72
2023/04/25 07:21:19;;;;;;;3.03;2.30;;;13.20;99.90;;;;;;5114244;28;20059;-72
2023/04/25 07:23:45;;;;;;;2.20;1.90;;;13.20;99.90;;;;;;5114261;28;20046;-72
2023/04/25 07:26:11;;;;;;;2.40;1.95;;;13.30;99.90;;;;;;5114067;28;20059;-71
2023/04/25 07:28:37;;;;;;;2.88;2.20;;;13.10;99.90;;;;;;5114321;28;20110;-72
2023/04/25 07:31:02;;;;;;;3.53;2.08;;;13.20;99.90;;;;;;5114243;28;20035;-72
2023/04/25 07:33:29;;;;;;;2.30;2.10;;;13.10;99.90;;;;;;5114188;28;20027;-71
2023/04/25 07:35:55;;;;;;;2.30;2.00;;;13.30;99.90;;;;;;5113890;28;20031;-71
2023/04/25 07:38:21;;;;;;;3.08;1.77;;;13.20;99.90;;;;;;5113759;28;20144;-70
2023/04/25 07:40:50;;;;;;;2.10;2.00;;;13.20;99.90;;;;;;5113980;28;20034;-71
2023/04/25 07:43:16;;;;;;;2.20;2.00;;;13.20;99.90;;;;;;5114737;28;20224;-71
2023/04/25 07:45:46;;;;;;;2.05;1.92;;;13.20;99.90;;;;;;5113636;28;20036;-71
2023/04/25 07:48:16;;;;;;;4.05;2.10;;;13.20;99.90;;;;;;5113245;28;20034;-70
2023/04/25 07:50:41;;;;;;;3.13;2.42;;;13.30;99.90;;;;;;5113609;28;20032;-71
2023/04/25 07:53:07;;;;;;;3.10;2.30;;;13.20;99.90;;;;;;5113995;28;20034;-71
2023/04/25 07:55:33;;;;;;;5.18;2.63;;;13.30;99.90;;;;;;5113207;28;20051;-71
2023/04/25 07:57:58;;;;;;;4.43;2.60;;;13.30;99.90;;;;;;5113964;28;20032;-70
2023/04/25 08:00:24;;;;;;;2.75;2.30;;;13.40;99.90;;;;;;5113444;28;20027;-71
2023/04/25 08:02:50;;;;;;;3.28;2.20;;;13.50;99.90;;;;;;5113072;28;20034;-70
2023/04/25 08:05:16;;;;;;;3.25;2.50;;;13.40;99.90;;;;;;5113236;28;20020;-70
2023/04/25 08:07:43;;;;;;;3.25;2.33;;;13.50;99.90;;;;;;5112656;28;20432;-70
2023/04/25 08:10:09;;;;;;;3.22;2.47;;;13.50;99.90;;;;;;5113166;28;20067;-70
2023/04/25 08:12:35;;;;;;;2.85;2.60;;;13.50;99.90;;;;;;5113111;28;20039;-71
2023/04/25 08:15:01;;;;;;;2.97;2.50;;;13.50;99.90;;;;;;5113455;28;20510;-70
2023/04/25 08:17:27;;;;;;;4.93;2.80;;;13.50;99.90;;;;;;5112886;28;20104;-70
2023/04/25 08:19:55;;;;;;;4.95;3.40;;;13.50;99.90;;;;;;5113165;28;20512;-70
2023/04/25 08:22:20;;;;;;;5.32;2.92;;;13.40;99.90;;;;;;5113079;28;20031;-70
2023/04/25 08:24:46;;;;;;;6.40;3.05;;;13.60;99.90;;;;;;5113039;28;20040;-71
2023/04/25 08:27:12;;;;;;;2.92;2.70;;;13.60;99.90;;;;;;5113709;28;20286;-70
2023/04/25 08:29:37;;;;;;;3.05;2.60;;;13.60;99.90;;;;;;5112849;28;20027;-71
2023/04/25 08:32:03;;;;;;;4.50;2.83;;;13.70;99.90;;;;;;5094454;28;20032;-70
2023/04/25 08:34:29;;;;;;;4.30;2.80;;;13.70;99.90;;;;;;5112812;28;20016;-70
2023/04/25 08:36:55;;;;;;;3.45;2.72;;;13.70;99.90;;;;;;5112472;28;20026;-70
2023/04/25 08:39:20;;;;;;;5.40;2.70;;;13.70;99.90;;;;;;5113078;28;20023;-70
2023/04/25 08:41:46;;;;;;;4.28;3.00;;;13.60;99.90;;;;;;5112790;28;20024;-70
2023/04/25 08:44:12;;;;;;;3.72;2.70;;;13.60;99.90;;;;;;5112626;28;20020;-71
2023/04/25 08:46:41;;;;;;;2.97;2.70;;;13.70;99.90;;;;;;5112250;28;20106;-71
2023/04/25 08:49:07;;;;;;;4.47;2.72;;;13.60;99.90;;;;;;5112455;28;20031;-70
2023/04/25 08:51:33;;;;;;;3.85;2.72;;;13.50;99.90;;;;;;5112439;28;20028;-70
2023/04/25 08:54:13;;;;;;;5.65;2.92;;;13.60;99.90;;;;;;5112501;28;20028;-71
2023/04/25 08:56:44;;;;;;;4.20;3.10;;;13.60;99.90;;;;;;5112326;28;20049;-71
2023/04/25 08:59:14;;;;;;;3.78;2.80;;;13.60;99.90;;;;;;5111669;28;20032;-71
2023/04/25 09:01:40;;;;;;;4.55;2.80;;;13.70;99.90;;;;;;5112018;28;20023;-71
2023/04/25 09:04:06;;;;;;;3.28;2.72;;;13.70;99.90;;;;;;5112536;28;20075;-70
2023/04/25 09:06:34;;;;;;;6.28;3.20;;;13.80;99.90;;;;;;5112413;28;20032;-71
2023/04/25 09:09:07;;;;;;;4.53;3.13;;;13.90;99.90;;;;;;5111788;28;20019;-71
2023/04/25 09:11:35;;;;;;;4.57;3.10;;;13.90;99.90;;;;;;5093671;28;20438;-70
2023/04/25 09:14:14;;;;;;;4.47;3.30;;;14.00;99.90;;;;;;5112036;28;20034;-71
2023/04/25 09:16:59;;;;;;;3.90;3.30;;;14.00;99.90;;;;;;5112153;28;20114;-71
2023/04/25 09:19:28;;;;;;;3.83;3.30;;;14.00;99.90;;;;;;5111486;28;20063;-71
2023/04/25 09:21:55;;;;;;;5.65;3.90;;;14.10;99.90;;;;;;5112102;28;20480;-71
2023/04/25 09:24:43;;;;;;;3.85;3.55;;;14.10;99.90;;;;;;5112163;28;20023;-71
2023/04/25 09:27:10;;;;;;;4.50;3.83;;;14.20;99.90;;;;;;5111819;28;20392;-70
2023/04/25 09:29:39;;;;;;;4.80;3.78;;;14.20;99.90;;;;;;5111517;28;20027;-71
2023/04/25 09:32:25;;;;;;;5.00;4.00;;;14.30;99.90;;;;;;5111725;28;20023;-70
2023/04/25 09:34:56;;;;;;;6.07;4.00;;;14.40;99.90;;;;;;5111593;28;20024;-70
2023/04/25 09:37:24;;;;;;;4.18;3.78;;;14.50;99.90;;;;;;5111776;28;20015;-70
2023/04/25 09:40:05;;;;;;;4.78;3.92;;;14.60;99.90;;;;;;5112016;28;20071;-71
2023/04/25 09:42:31;;;;;;;3.60;3.20;;;14.70;99.90;;;;;;5111611;28;20038;-68
2023/04/25 09:44:58;;;;;;;4.38;3.20;;;14.60;99.90;;;;;;5111797;28;20024;-69
2023/04/25 09:47:26;;;;;;;5.35;3.08;;;14.70;99.90;;;;;;5111639;28;20101;-71
2023/04/25 09:49:53;;;;;;;19.35;4.47;;;14.70;99.90;;;;;;5111566;28;20036;-72
2023/04/25 09:52:23;;;;;;;71.38;10.27;;;14.70;99.90;;;;;;5112080;28;20032;-70
2023/04/25 09:54:50;;;;;;;7.50;4.15;;;14.70;99.90;;;;;;5111660;28;20035;-72
2023/04/25 09:57:24;;;;;;;4.55;3.13;;;14.70;99.90;;;;;;5111742;28;20016;-70
2023/04/25 09:59:52;;;;;;;5.32;3.00;;;14.70;99.90;;;;;;5111667;28;20098;-71
2023/04/25 10:02:20;;;;;;;115.03;12.45;;;14.70;99.90;;;;;;5111810;28;20515;-71
2023/04/25 10:05:07;;;;;;;28.58;4.63;;;14.70;99.90;;;;;;5111687;28;20023;-70
2023/04/25 10:07:35;;;;;;;10.23;3.10;;;14.70;99.90;;;;;;5111518;28;20019;-69
2023/04/25 10:10:03;;;;;;;4.68;2.90;;;14.60;99.90;;;;;;5111856;28;20031;-70
2023/04/25 10:12:31;;;;;;;3.72;2.60;;;14.70;99.90;;;;;;5110626;28;20666;-70
2023/04/25 10:14:58;;;;;;;4.43;2.92;;;14.70;99.90;;;;;;5110419;28;20484;-71
2023/04/25 10:17:26;;;;;;;4.18;2.70;;;14.80;99.90;;;;;;5092458;28;20428;-70
2023/04/25 10:19:54;;;;;;;4.22;2.35;;;14.80;99.90;;;;;;5110874;28;20034;-69
2023/04/25 10:22:39;;;;;;;4.25;2.83;;;14.90;99.90;;;;;;5111524;28;20531;-69
2023/04/25 10:25:06;;;;;;;4.15;2.70;;;15.00;99.90;;;;;;5111892;28;20020;-70
2023/04/25 10:27:32;;;;;;;3.85;2.75;;;14.90;99.90;;;;;;5110335;28;20035;-70
2023/04/25 10:30:06;;;;;;;3.30;2.70;;;15.00;99.90;;;;;;5112039;28;20120;-70
2023/04/25 10:32:34;;;;;;;3.35;2.70;;;15.00;99.90;;;;;;5114689;28;20043;-70
2023/04/25 10:35:16;;;;;;;3.55;2.83;;;15.00;99.90;;;;;;5097001;28;20415;-69
2023/04/25 10:37:58;;;;;;;3.75;3.00;;;15.00;99.90;;;;;;5115191;28;20032;-70
2023/04/25 10:40:24;;;;;;;3.45;2.70;;;15.10;99.90;;;;;;5114917;28;20068;-70
2023/04/25 10:42:57;;;;;;;5.65;2.58;;;15.00;99.90;;;;;;5115636;28;20027;-70
2023/04/25 10:45:23;;;;;;;3.22;2.72;;;15.00;99.90;;;;;;5115136;28;20072;-71
2023/04/25 10:47:49;;;;;;;4.35;2.80;;;14.90;99.90;;;;;;5115107;28;20480;-70
2023/04/25 10:50:18;;;;;;;3.75;2.50;;;14.90;99.90;;;;;;5114975;28;20540;-71
2023/04/25 10:52:44;;;;;;;4.68;2.40;;;14.90;99.90;;;;;;5114804;28;20077;-70
2023/04/25 10:55:10;;;;;;;3.90;2.72;;;14.80;99.90;;;;;;5114608;28;20061;-71
2023/04/25 10:57:49;;;;;;;3.20;2.53;;;14.90;99.90;;;;;;5114587;28;20027;-71
2023/04/25 11:00:17;;;;;;;3.53;2.58;;;15.00;99.90;;;;;;5114789;28;20024;-71
2023/04/25 11:02:53;;;;;;;3.67;2.80;;;15.10;99.90;;;;;;5114757;28;20039;-71
2023/04/25 11:05:27;;;;;;;3.38;2.75;;;15.10;99.90;;;;;;5114817;28;20080;-70
2023/04/25 11:07:57;;;;;;;3.03;2.72;;;15.20;99.90;;;;;;5114394;28;20056;-70
2023/04/25 11:10:30;;;;;;;4.85;3.03;;;15.30;99.90;;;;;;5114261;28;20484;-71
2023/04/25 11:12:57;;;;;;;;;;;15.30;99.90;;;;;;5114613;28;20177;-71
2023/04/25 11:15:23;;;;;;;3.03;2.60;;;15.30;99.90;;;;;;5114355;28;19916;-71
2023/04/25 11:17:51;;;;;;;4.07;2.75;;;15.40;99.90;;;;;;5114299;28;20024;-71
2023/04/25 11:20:17;;;;;;;3.47;2.58;;;15.40;99.90;;;;;;5114209;28;20035;-69
2023/04/25 11:22:47;;;;;;;3.75;2.63;;;15.30;99.90;;;;;;5114218;28;20020;-70
2023/04/25 11:25:14;;;;;;;4.85;2.90;;;15.40;99.90;;;;;;5113909;28;20031;-70
2023/04/25 11:27:53;;;;;;;5.03;2.97;;;15.40;99.90;;;;;;5114053;28;20449;-69
2023/04/25 11:30:20;;;;;;;3.05;2.55;;;15.30;99.90;;;;;;5114042;28;20408;-69
2023/04/25 11:32:47;;;;;;;4.10;3.13;;;15.40;99.90;;;;;;5114268;28;20039;-70
2023/04/25 11:35:13;;;;;;;4.57;3.25;;;15.40;99.90;;;;;;5114041;28;20031;-70
2023/04/25 11:37:42;;;;;;;2.60;2.40;;;15.50;99.90;;;;;;5113808;28;20107;-71
2023/04/25 11:40:09;;;;;;;2.70;2.50;;;15.50;99.90;;;;;;5113717;28;20028;-69
2023/04/25 11:42:39;;;;;;;3.97;2.42;;;15.50;99.90;;;;;;5113186;28;20397;-71
2023/04/25 11:45:06;;;;;;;3.60;2.00;;;15.50;99.90;;;;;;5113931;28;20015;-70
2023/04/25 11:47:32;;;;;;;2.00;1.90;;;15.40;99.90;;;;;;5113735;28;20081;-70
2023/04/25 11:50:03;;;;;;;2.60;2.08;;;15.40;99.90;;;;;;5113868;28;20063;-70
2023/04/25 11:52:43;;;;;;;2.13;2.00;;;15.40;99.90;;;;;;5114294;28;20019;-70
2023/04/25 11:55:13;;;;;;;2.45;2.25;;;15.40;99.90;;;;;;5113501;28;20020;-71
2023/04/25 11:57:40;;;;;;;2.88;2.58;;;15.40;99.90;;;;;;5113688;28;20024;-70
2023/04/25 12:00:08;;;;;;;2.50;2.28;;;15.50;99.90;;;;;;5114046;28;20016;-71
2023/04/25 12:02:36;;;;;;;2.35;2.15;;;15.40;99.90;;;;;;5113512;28;20104;-71
2023/04/25 12:05:03;;;;;;;2.22;2.03;;;15.40;99.90;;;;;;5113622;28;20046;-71
2023/04/25 12:07:31;;;;;;;3.55;2.40;;;15.50;99.90;;;;;;5113631;28;20039;-71
2023/04/25 12:09:57;;;;;;;2.40;2.20;;;15.60;99.90;;;;;;5113197;28;20122;-70
2023/04/25 12:12:27;;;;;;;3.28;2.03;;;15.60;99.90;;;;;;5113119;28;20135;-71
2023/04/25 12:14:55;;;;;;;2.28;2.05;;;15.70;99.90;;;;;;5113388;28;20028;-71
2023/04/25 12:17:22;;;;;;;3.35;1.98;;;15.80;99.90;;;;;;5113609;28;20031;-71
2023/04/25 12:19:48;;;;;;;3.10;1.90;;;15.80;99.90;;;;;;5113265;28;20384;-71
2023/04/25 12:22:22;;;;;;;3.58;2.10;;;15.80;99.90;;;;;;5112641;28;20020;-70
2023/04/25 12:24:47;;;;;;;3.80;2.10;;;15.90;99.90;;;;;;5113120;28;20514;-71
2023/04/25 12:27:16;;;;;;;3.60;1.90;;;15.90;99.90;;;;;;5113321;28;20019;-71
2023/04/25 12:29:54;;;;;;;3.10;2.03;;;15.90;99.90;;;;;;5112896;28;20419;-71
2023/04/25 12:32:20;;;;;;;2.17;1.88;;;15.90;99.90;;;;;;5113116;28;20115;-70
2023/04/25 12:34:45;;;;;;;1.75;1.60;;;15.80;99.90;;;;;;5112857;28;20091;-70
2023/04/25 12:37:11;;;;;;;4.10;1.95;;;15.90;99.90;;;;;;5112636;28;20498;-71
2023/04/25 12:39:37;;;;;;;2.22;1.92;;;16.00;99.90;;;;;;5113129;28;20361;-70
2023/04/25 12:42:03;;;;;;;2.88;2.00;;;16.20;99.90;;;;;;5112897;28;20051;-70
2023/04/25 12:44:29;;;;;;;2.65;2.10;;;16.20;99.90;;;;;;5112764;28;20962;-70
2023/04/25 12:46:54;;;;;;;2.17;1.90;;;16.20;99.90;;;;;;5112608;28;20032;-71
2023/04/25 12:49:20;;;;;;;2.17;1.70;;;16.10;99.90;;;;;;5112882;28;20079;-71